createdAt,value
2023-05-06T00:04:22.595Z,13.48
2023-05-06T00:09:28.291Z,13.63
2023-05-06T00:14:36.029Z,14.23
2023-05-06T00:19:41.761Z,13.02
2023-05-06T00:24:46.891Z,12.23
2023-05-06T00:29:54.627Z,11.52
2023-05-06T00:34:59.677Z,11.52
2023-05-06T00:40:05.917Z,13.02
2023-05-06T00:45:14.767Z,12.75
2023-05-06T00:50:20.054Z,14.32
2023-05-06T00:55:25.307Z,11.40
2023-05-06T01:00:33.125Z,14.88
2023-05-06T01:05:47.581Z,13.75
2023-05-06T01:10:57.003Z,13.60
2023-05-06T01:16:05.967Z,12.40
2023-05-06T01:21:11.046Z,14.20
2023-05-06T01:26:18.913Z,13.73
2023-05-06T01:31:28.611Z,20.27
2023-05-06T01:36:36.981Z,19.13
2023-05-06T01:41:45.653Z,20.05
2023-05-06T01:46:51.949Z,14.75
2023-05-06T01:51:58.239Z,17.85
2023-05-06T01:57:05.978Z,15.50
2023-05-06T02:07:16.312Z,14.82
2023-05-06T02:12:23.991Z,16.40
2023-05-06T02:17:29.293Z,15.55
2023-05-06T02:22:34.425Z,17.58
2023-05-06T02:27:42.215Z,20.38
2023-05-06T02:32:47.532Z,17.90
2023-05-06T02:37:52.737Z,16.13
2023-05-06T02:43:00.813Z,17.25
2023-05-06T02:48:06.039Z,18.70
2023-05-06T02:53:13.418Z,18.23
2023-05-06T02:58:21.118Z,17.23
2023-05-06T03:03:26.261Z,16.98
2023-05-06T03:08:31.424Z,18.10
2023-05-06T03:13:39.224Z,15.95
2023-05-06T03:18:44.520Z,18.15
2023-05-06T03:23:49.649Z,17.58
2023-05-06T03:28:57.946Z,15.75
2023-05-06T03:34:03.048Z,20.10
2023-05-06T03:39:08.189Z,19.02
2023-05-06T03:44:15.960Z,18.52
2023-05-06T03:49:21.121Z,23.10
2023-05-06T03:54:26.491Z,22.65
2023-05-06T03:59:34.267Z,24.55
2023-05-06T04:09:44.342Z,24.13
2023-05-06T04:14:52.015Z,24.10
2023-05-06T04:25:03.436Z,24.77
2023-05-06T04:30:16.274Z,28.60
2023-05-06T04:35:22.155Z,43.42
2023-05-06T04:40:27.827Z,36.65
2023-05-06T04:45:38.166Z,38.33
2023-05-06T04:50:49.499Z,36.40
2023-05-06T04:55:54.688Z,33.30
2023-05-06T05:01:03.733Z,35.72
2023-05-06T05:06:10.374Z,30.48
2023-05-06T05:11:15.877Z,27.35
2023-05-06T05:16:23.642Z,25.20
2023-05-06T05:21:28.728Z,22.95
2023-05-06T05:26:33.885Z,19.67
2023-05-06T05:31:41.818Z,19.25
2023-05-06T05:36:47.286Z,22.75
2023-05-06T05:41:52.443Z,25.35
2023-05-06T05:47:00.781Z,25.95
2023-05-06T05:52:06.156Z,24.70
2023-05-06T05:57:11.358Z,24.23
2023-05-06T06:02:19.274Z,19.33
2023-05-06T06:07:24.437Z,21.20
2023-05-06T06:12:31.438Z,17.60
2023-05-06T06:17:39.097Z,14.38
2023-05-06T06:22:44.302Z,24.40
2023-05-06T06:27:49.379Z,15.30
2023-05-06T06:32:59.086Z,14.82
2023-05-06T06:38:04.561Z,13.45
2023-05-06T06:43:09.770Z,15.38
2023-05-06T06:48:17.681Z,13.43
2023-05-06T06:53:23.139Z,17.15
2023-05-06T06:58:28.645Z,13.73
2023-05-06T07:03:37.047Z,14.02
2023-05-06T07:08:42.481Z,12.07
2023-05-06T07:13:48.228Z,12.85
2023-05-06T07:18:56.684Z,11.13
2023-05-06T07:24:02.646Z,9.57
2023-05-06T07:29:08.053Z,11.20
2023-05-06T07:34:16.404Z,10.93
2023-05-06T07:39:22.100Z,8.93
2023-05-06T07:44:27.921Z,10.55
2023-05-06T07:49:37.099Z,9.25
2023-05-06T07:54:42.944Z,15.05
2023-05-06T07:59:51.987Z,12.95
2023-05-06T08:05:01.497Z,9.07
2023-05-06T08:10:08.813Z,12.45
2023-05-06T08:15:16.183Z,11.20
2023-05-06T08:20:24.747Z,11.65
2023-05-06T08:25:32.890Z,12.15
2023-05-06T08:30:38.607Z,12.25
2023-05-06T08:35:46.997Z,8.65
2023-05-06T08:40:52.797Z,8.82
2023-05-06T08:45:58.745Z,8.88
2023-05-06T08:51:08.437Z,10.85
2023-05-06T08:56:16.881Z,7.63
2023-05-06T09:01:23.950Z,6.68
2023-05-06T09:06:33.871Z,11.50
2023-05-06T09:11:41.756Z,6.85
2023-05-06T09:16:49.205Z,5.68
2023-05-06T09:21:57.911Z,7.25
2023-05-06T09:27:04.297Z,6.97
2023-05-06T09:32:12.553Z,11.75
2023-05-06T09:37:21.954Z,6.65
2023-05-06T09:42:28.256Z,8.20
2023-05-06T09:47:37.842Z,7.00
2023-05-06T09:52:49.130Z,7.07
2023-05-06T09:57:54.826Z,7.63
2023-05-06T10:03:02.311Z,7.22
2023-05-06T10:08:12.074Z,8.00
2023-05-06T10:13:19.116Z,8.32
2023-05-06T10:18:26.137Z,7.00
2023-05-06T10:23:41.700Z,5.65
2023-05-06T10:28:47.631Z,5.20
2023-05-06T10:33:54.238Z,8.32
2023-05-06T10:39:04.334Z,9.02
2023-05-06T10:44:10.830Z,4.43
2023-05-06T10:49:21.772Z,5.00
2023-05-06T10:54:30.809Z,4.85
2023-05-06T10:59:36.302Z,5.80
2023-05-06T11:04:42.743Z,5.68
2023-05-06T11:10:02.794Z,6.03
2023-05-06T11:15:24.269Z,4.95
2023-05-06T11:20:37.629Z,4.65
2023-05-06T11:25:53.698Z,7.53
2023-05-06T11:31:05.770Z,5.05
2023-05-06T11:36:18.239Z,5.07
2023-05-06T11:41:26.459Z,6.35
2023-05-06T11:46:36.578Z,7.25
2023-05-06T11:51:41.772Z,5.32
2023-05-06T11:56:51.887Z,7.25
2023-05-06T12:01:57.132Z,5.75
2023-05-06T12:07:03.718Z,4.80
2023-05-06T12:12:13.184Z,6.07
2023-05-06T12:17:18.791Z,4.20
2023-05-06T12:22:25.294Z,6.38
2023-05-06T12:27:38.347Z,4.80
2023-05-06T12:33:03.807Z,5.15
2023-05-06T12:38:14.036Z,4.88
2023-05-06T12:43:23.658Z,4.45
2023-05-06T12:48:28.907Z,4.18
2023-05-06T12:53:35.970Z,6.97
2023-05-06T12:58:44.015Z,4.60
2023-05-06T13:03:49.457Z,5.50
2023-05-06T13:08:55.588Z,4.82
2023-05-06T13:14:04.015Z,4.82
2023-05-06T13:19:21.193Z,5.32
2023-05-06T13:24:31.447Z,5.53
2023-05-06T13:29:39.698Z,5.35
2023-05-06T13:34:46.128Z,8.57
2023-05-06T13:45:00.715Z,5.72
2023-05-06T13:50:06.907Z,5.90
2023-05-06T13:55:14.211Z,7.22
2023-05-06T14:00:24.161Z,5.38
2023-05-06T14:05:30.678Z,6.40
2023-05-06T14:10:36.409Z,7.30
2023-05-06T14:15:44.529Z,6.65
2023-05-06T14:20:50.059Z,5.75
2023-05-06T14:25:55.663Z,5.45
2023-05-06T14:31:04.090Z,5.05
2023-05-06T14:36:10.639Z,5.07
2023-05-06T14:46:28.546Z,5.90
2023-05-06T14:51:36.275Z,4.70
2023-05-06T14:56:41.933Z,6.35
2023-05-06T15:01:50.011Z,7.07
2023-05-06T15:06:57.384Z,5.32
2023-05-06T15:12:04.173Z,7.40
2023-05-06T15:17:14.210Z,5.03
2023-05-06T15:22:19.926Z,7.82
2023-05-06T15:27:25.411Z,5.30
2023-05-06T15:32:33.863Z,5.05
2023-05-06T15:37:41.568Z,4.85
2023-05-06T15:42:47.573Z,6.72
2023-05-06T15:47:56.977Z,5.82
2023-05-06T15:53:03.003Z,4.05
2023-05-06T15:58:09.064Z,5.00
2023-05-06T16:03:17.969Z,6.18
2023-05-06T16:08:24.505Z,6.47
2023-05-06T16:13:30.796Z,6.32
2023-05-06T16:18:39.184Z,4.18
2023-05-06T16:23:44.904Z,4.07
2023-05-06T16:28:50.638Z,10.82
2023-05-06T16:33:58.992Z,10.10
2023-05-06T16:39:06.633Z,20.60
2023-05-06T16:44:12.312Z,6.97
2023-05-06T16:49:22.016Z,5.28
2023-05-06T16:54:27.817Z,6.90
2023-05-06T16:59:34.025Z,7.70
2023-05-06T17:04:42.640Z,14.05
2023-05-06T17:09:48.989Z,4.53
2023-05-06T17:14:54.823Z,4.95
2023-05-06T17:20:13.907Z,8.80
2023-05-06T17:25:20.026Z,5.10
2023-05-06T17:30:26.115Z,4.55
2023-05-06T17:35:34.507Z,4.63
2023-05-06T17:40:40.699Z,5.43
2023-05-06T17:45:47.137Z,4.47
2023-05-06T17:50:56.846Z,4.60
2023-05-06T17:56:02.743Z,6.65
2023-05-06T18:01:10.062Z,7.40
2023-05-06T18:06:20.055Z,5.70
2023-05-06T18:11:26.105Z,7.30
2023-05-06T18:16:33.112Z,5.97
2023-05-06T18:21:41.747Z,4.32
2023-05-06T18:26:48.796Z,4.65
2023-05-06T18:31:54.909Z,6.20
2023-05-06T18:37:03.668Z,6.50
2023-05-06T18:42:09.704Z,4.68
2023-05-06T18:47:19.222Z,5.35
2023-05-06T18:52:29.365Z,4.15
2023-05-06T18:57:35.340Z,5.43
2023-05-06T19:02:41.957Z,6.22
2023-05-06T19:07:52.048Z,6.00
2023-05-06T19:12:58.063Z,6.57
2023-05-06T19:18:06.225Z,7.60
2023-05-06T19:23:20.112Z,12.65
2023-05-06T19:28:26.541Z,8.00
2023-05-06T19:33:32.557Z,7.30
2023-05-06T19:38:41.652Z,6.40
2023-05-06T19:43:48.159Z,5.28
2023-05-06T19:48:56.118Z,6.68
2023-05-06T19:54:05.072Z,6.55
2023-05-06T19:59:10.982Z,8.25
2023-05-06T20:04:17.365Z,4.88
2023-05-06T20:09:28.452Z,6.40
2023-05-06T20:14:35.406Z,6.20
2023-05-06T20:19:41.635Z,5.90
2023-05-06T20:24:51.620Z,6.35
2023-05-06T20:30:03.504Z,4.68
2023-05-06T20:35:11.612Z,5.15
2023-05-06T20:40:21.110Z,5.30
2023-05-06T20:45:28.606Z,5.18
2023-05-06T20:50:34.496Z,4.72
2023-05-06T20:55:43.183Z,5.20
2023-05-06T21:00:49.421Z,4.32
2023-05-06T21:05:57.824Z,8.60
2023-05-06T21:11:07.276Z,4.85
2023-05-06T21:16:13.341Z,7.53
2023-05-06T21:21:19.333Z,9.13
2023-05-06T21:26:27.993Z,5.85
2023-05-06T21:31:34.233Z,5.88
2023-05-06T21:36:43.503Z,5.05
2023-05-06T21:41:52.315Z,6.22
2023-05-06T21:46:58.472Z,9.10
2023-05-06T21:52:04.572Z,5.97
2023-05-06T21:57:14.363Z,6.75
2023-05-06T22:02:20.452Z,6.93
2023-05-06T22:07:27.002Z,8.68
2023-05-06T22:12:36.084Z,6.50
2023-05-06T22:17:42.392Z,8.00
2023-05-06T22:22:47.922Z,7.88
2023-05-06T22:27:55.718Z,6.05
2023-05-06T22:33:01.512Z,5.22
2023-05-06T22:38:08.688Z,5.80
2023-05-06T22:43:16.661Z,5.88
2023-05-06T22:48:22.036Z,6.75
2023-05-06T22:53:27.206Z,5.22
2023-05-06T22:58:34.949Z,5.90
2023-05-06T23:03:40.236Z,5.72
2023-05-06T23:08:46.233Z,7.32
2023-05-06T23:13:54.101Z,5.85
2023-05-06T23:18:59.549Z,5.50
2023-05-06T23:24:04.706Z,5.93
2023-05-06T23:29:12.376Z,5.82
2023-05-06T23:34:17.476Z,5.70
2023-05-06T23:39:22.685Z,8.50
2023-05-06T23:44:30.834Z,6.45
2023-05-06T23:49:37.108Z,5.63
2023-05-06T23:54:42.281Z,6.07
2023-05-06T23:59:49.968Z,6.35
